SBOSBO JMK / LGMK
Speedbird OnlineSpeedbird Online JMK / LGMK

Mikonos Airport
08:20 11°C

Location Mykonos, Greece
Latitude: 37.43510055541992
Longitude: 25.348100662231445
Web Wikipedia
Altitude 123 Meter / 405 Feet
Distance 2,519 KM / 1,565 Miles
from London.
Time Zone UTC +2 hours (Europe/Athens)
Codes IATA: JMK
ICAO: LGMK
Currency £1 equals EUR 1.14
Runways
RunwayLength (m)Surface
161902Asphalt
341902Asphalt
Radio
TypeDescriptionFrequency
A/GRDO563.7
APPAPP118.75
TWRTWR118.75
Live ATC
METAR LGMK 290550Z 36010KT 9999 SCT012 BKN025 11/08 Q1014
TAF TAF LGMK 290500Z 2906/2915 36012KT 9999 SCT016 PROB30 TEMPO 2906/2915 5000 RA SCT010 FEW018TCU BKN020
Weather As Of 29 Jan 2023 08:20
Description Broken clouds
Wind 19 km/h from North (360°)
Cloud Cover 75%
Precipitation Rain: none, Snow: none
Sunrise 07:24
Sunset 17:38
Lounges CIP Lounge by Goldair, Main Terminal Building



Support Speedbird Online

© 2017-2023 Speedbird Online